createdAt,value
2022-10-15T00:00:42.073Z,46.28
2022-10-15T00:03:09.322Z,53.50
2022-10-15T00:05:42.818Z,48.58
2022-10-15T00:08:10.189Z,46.92
2022-10-15T00:10:37.559Z,43.85
2022-10-15T00:13:05.040Z,41.08
2022-10-15T00:15:32.335Z,44.08
2022-10-15T00:17:59.528Z,43.33
2022-10-15T00:20:26.726Z,41.78
2022-10-15T00:22:53.974Z,46.17
2022-10-15T00:25:21.189Z,42.50
2022-10-15T00:27:48.401Z,38.85
2022-10-15T00:30:15.703Z,42.85
2022-10-15T00:32:42.903Z,48.92
2022-10-15T00:35:10.559Z,39.92
2022-10-15T00:37:37.786Z,41.90
2022-10-15T00:40:05.243Z,39.30
2022-10-15T00:42:32.429Z,33.30
2022-10-15T00:44:59.834Z,36.10
2022-10-15T00:47:47.278Z,39.85
2022-10-15T00:50:18.057Z,37.72
2022-10-15T00:52:57.115Z,45.00
2022-10-15T00:55:31.247Z,40.30
2022-10-15T00:58:08.570Z,38.95
2022-10-15T01:00:35.829Z,43.60
2022-10-15T01:03:03.070Z,42.38
2022-10-15T01:05:30.351Z,46.70
2022-10-15T01:07:57.579Z,47.45
2022-10-15T01:10:24.806Z,45.22
2022-10-15T01:12:59.772Z,39.30
2022-10-15T01:15:46.693Z,35.60
2022-10-15T01:18:32.696Z,39.20
2022-10-15T01:21:20.429Z,47.33
2022-10-15T01:23:47.645Z,40.78
2022-10-15T01:26:37.958Z,37.30
2022-10-15T01:29:23.716Z,43.58
2022-10-15T01:31:56.922Z,41.20
2022-10-15T01:34:33.081Z,41.60
2022-10-15T01:37:06.134Z,42.92
2022-10-15T01:39:34.243Z,41.13
2022-10-15T01:42:02.083Z,44.92
2022-10-15T01:44:31.097Z,38.58
2022-10-15T01:47:05.120Z,39.53
2022-10-15T01:49:33.080Z,50.47
2022-10-15T01:52:00.890Z,39.25
2022-10-15T01:54:28.151Z,37.45
2022-10-15T01:56:55.539Z,40.83
2022-10-15T01:59:23.425Z,43.45
2022-10-15T02:01:50.648Z,41.35
2022-10-15T02:04:21.938Z,43.03
2022-10-15T02:06:51.175Z,45.17
2022-10-15T02:09:38.613Z,50.10
2022-10-15T02:12:10.753Z,41.13
2022-10-15T02:15:01.752Z,45.17
2022-10-15T02:17:32.545Z,50.42
2022-10-15T02:20:01.421Z,47.40
2022-10-15T02:22:33.646Z,49.17
2022-10-15T02:25:15.080Z,50.92
2022-10-15T02:27:42.438Z,53.78
2022-10-15T02:30:09.817Z,46.58
2022-10-15T02:32:38.218Z,48.08
2022-10-15T02:35:05.633Z,56.97
2022-10-15T02:37:32.822Z,49.65
2022-10-15T02:40:00.024Z,46.78
2022-10-15T02:42:27.361Z,55.88
2022-10-15T02:44:54.579Z,55.60
2022-10-15T02:47:21.846Z,49.47
2022-10-15T02:49:49.199Z,45.35
2022-10-15T02:52:16.407Z,47.22
2022-10-15T02:54:43.608Z,48.30
2022-10-15T02:57:10.834Z,51.75
2022-10-15T02:59:38.055Z,43.30
2022-10-15T03:02:05.259Z,54.75
2022-10-15T03:04:32.530Z,50.88
2022-10-15T03:06:59.742Z,56.15
2022-10-15T03:09:26.953Z,53.90
2022-10-15T03:11:54.183Z,53.63
2022-10-15T03:14:21.403Z,50.60
2022-10-15T03:16:48.690Z,42.08
2022-10-15T03:19:16.111Z,46.38
2022-10-15T03:21:43.330Z,44.92
2022-10-15T03:24:10.536Z,49.95
2022-10-15T03:26:37.784Z,47.38
2022-10-15T03:29:05.063Z,49.08
2022-10-15T03:31:32.254Z,49.90
2022-10-15T03:33:59.473Z,53.80
2022-10-15T03:36:26.678Z,47.58
2022-10-15T03:38:53.866Z,53.25
2022-10-15T03:41:21.106Z,47.92
2022-10-15T03:43:48.312Z,54.70
2022-10-15T03:46:16.574Z,93.13
2022-10-15T03:48:43.824Z,72.95
2022-10-15T03:51:11.116Z,79.30
2022-10-15T03:53:38.326Z,69.85
2022-10-15T03:56:05.815Z,69.40
2022-10-15T03:58:33.075Z,73.03
2022-10-15T04:01:00.309Z,68.90
2022-10-15T04:03:27.623Z,81.25
2022-10-15T04:05:55.998Z,76.75
2022-10-15T04:08:24.017Z,76.00
2022-10-15T04:10:51.802Z,67.82
2022-10-15T04:13:19.027Z,60.25
2022-10-15T04:15:46.235Z,66.18
2022-10-15T04:18:13.634Z,54.33
2022-10-15T04:20:42.697Z,69.43
2022-10-15T04:23:10.415Z,91.60
2022-10-15T04:25:37.824Z,98.68
2022-10-15T04:28:05.084Z,110.35
2022-10-15T04:30:33.596Z,109.25
2022-10-15T04:33:00.835Z,115.03
2022-10-15T04:35:28.045Z,102.65
2022-10-15T04:37:55.234Z,109.18
2022-10-15T04:40:22.463Z,111.53
2022-10-15T04:42:49.649Z,111.22
2022-10-15T04:45:16.857Z,118.00
2022-10-15T04:47:44.179Z,100.03
2022-10-15T04:50:11.403Z,87.85
2022-10-15T04:52:38.607Z,86.75
2022-10-15T04:55:06.034Z,82.03
2022-10-15T04:57:33.263Z,86.82
2022-10-15T05:00:00.545Z,92.25
2022-10-15T05:02:28.154Z,89.63
2022-10-15T05:04:55.404Z,77.75
2022-10-15T05:07:22.896Z,89.20
2022-10-15T05:09:50.282Z,83.55
2022-10-15T05:12:17.480Z,88.97
2022-10-15T05:14:44.674Z,95.60
2022-10-15T05:17:11.894Z,91.72
2022-10-15T05:19:39.136Z,94.30
2022-10-15T05:22:06.358Z,96.28
2022-10-15T05:24:33.658Z,142.18
2022-10-15T05:27:02.969Z,86.18
2022-10-15T05:29:30.521Z,83.00
2022-10-15T05:31:57.763Z,82.20
2022-10-15T05:34:26.877Z,85.38
2022-10-15T05:36:54.074Z,91.47
2022-10-15T05:39:21.352Z,94.15
2022-10-15T05:41:49.470Z,97.35
2022-10-15T05:44:16.760Z,86.38
2022-10-15T05:46:44.085Z,95.35
2022-10-15T05:49:11.290Z,101.18
2022-10-15T05:51:38.479Z,95.68
2022-10-15T05:54:05.703Z,106.72
2022-10-15T05:56:32.903Z,106.30
2022-10-15T05:59:00.247Z,110.00
2022-10-15T06:01:27.531Z,117.95
2022-10-15T06:03:54.845Z,108.60
2022-10-15T06:06:22.888Z,115.70
2022-10-15T06:08:50.344Z,126.55
2022-10-15T06:11:17.670Z,147.30
2022-10-15T06:13:45.005Z,152.75
2022-10-15T06:16:12.457Z,125.97
2022-10-15T06:18:39.801Z,127.50
2022-10-15T06:21:07.749Z,124.22
2022-10-15T06:23:35.121Z,107.35
2022-10-15T06:26:03.278Z,138.10
2022-10-15T06:28:30.606Z,136.95
2022-10-15T06:31:01.201Z,145.68
2022-10-15T06:33:28.427Z,138.85
2022-10-15T06:35:55.764Z,127.00
2022-10-15T06:38:23.902Z,118.68
2022-10-15T06:40:51.094Z,111.50
2022-10-15T06:43:18.321Z,114.30
2022-10-15T06:45:46.036Z,108.28
2022-10-15T06:48:13.310Z,114.47
2022-10-15T06:50:40.717Z,85.18
2022-10-15T06:53:08.038Z,77.05
2022-10-15T06:55:35.348Z,75.32
2022-10-15T06:58:02.544Z,69.03
2022-10-15T07:00:29.929Z,77.05
2022-10-15T07:02:57.178Z,72.35
2022-10-15T07:05:24.365Z,58.70
2022-10-15T07:07:57.746Z,57.75
2022-10-15T07:10:25.588Z,48.03
2022-10-15T07:12:54.152Z,40.75
2022-10-15T07:15:21.425Z,32.08
2022-10-15T07:17:49.266Z,37.88
2022-10-15T07:20:20.253Z,35.30
2022-10-15T07:22:50.730Z,32.92
2022-10-15T07:25:18.031Z,29.45
2022-10-15T07:27:45.386Z,24.65
2022-10-15T07:30:12.630Z,24.38
2022-10-15T07:32:39.915Z,23.48
2022-10-15T07:35:07.326Z,32.28
2022-10-15T07:37:34.774Z,39.75
2022-10-15T07:40:01.962Z,28.50
2022-10-15T07:42:29.158Z,19.67
2022-10-15T07:44:56.455Z,31.23
2022-10-15T07:47:23.921Z,37.75
2022-10-15T07:49:51.334Z,27.85
2022-10-15T07:52:18.565Z,15.77
2022-10-15T07:54:45.780Z,17.10
2022-10-15T07:57:12.979Z,15.45
2022-10-15T07:59:40.222Z,16.65
2022-10-15T08:02:07.436Z,16.65
2022-10-15T08:04:35.180Z,17.35
2022-10-15T08:07:03.262Z,15.88
2022-10-15T08:09:31.986Z,16.77
2022-10-15T08:11:59.193Z,17.13
2022-10-15T08:14:26.417Z,14.45
2022-10-15T08:16:53.613Z,14.55
2022-10-15T08:19:20.904Z,14.25
2022-10-15T08:21:48.134Z,16.27
2022-10-15T08:24:15.341Z,12.95
2022-10-15T08:26:42.538Z,13.77
2022-10-15T08:29:10.813Z,12.13
2022-10-15T08:31:38.375Z,12.20
2022-10-15T08:34:05.581Z,13.63
2022-10-15T08:36:32.809Z,13.77
2022-10-15T08:39:00.044Z,13.55
2022-10-15T08:41:31.325Z,11.70
2022-10-15T08:43:58.707Z,11.43
2022-10-15T08:46:35.118Z,22.42
2022-10-15T08:49:02.345Z,13.00
2022-10-15T08:51:31.489Z,10.40
2022-10-15T08:53:59.235Z,10.75
2022-10-15T08:56:36.925Z,13.90
2022-10-15T08:59:13.639Z,11.50
2022-10-15T09:01:56.804Z,10.50
2022-10-15T09:04:43.260Z,12.82
2022-10-15T09:07:13.635Z,12.82
2022-10-15T09:09:45.775Z,9.68
2022-10-15T09:12:18.737Z,12.93
2022-10-15T09:14:45.935Z,10.48
2022-10-15T09:17:19.215Z,10.93
2022-10-15T09:19:46.472Z,18.08
2022-10-15T09:22:15.349Z,10.60
2022-10-15T09:24:42.579Z,9.90
2022-10-15T09:27:10.777Z,10.18
2022-10-15T09:29:40.862Z,11.02
2022-10-15T09:32:08.079Z,11.40
2022-10-15T09:34:35.301Z,9.30
2022-10-15T09:37:05.724Z,10.00
2022-10-15T09:40:02.329Z,12.15
2022-10-15T09:42:30.994Z,9.73
2022-10-15T09:45:04.450Z,10.07
2022-10-15T09:47:35.294Z,11.38
2022-10-15T09:50:03.000Z,10.77
2022-10-15T09:52:30.243Z,9.75
2022-10-15T09:54:57.475Z,8.45
2022-10-15T09:57:24.815Z,9.07
2022-10-15T10:00:01.208Z,8.02
2022-10-15T10:02:29.183Z,10.55
2022-10-15T10:04:56.829Z,8.60
2022-10-15T10:07:28.777Z,8.88
2022-10-15T10:09:56.833Z,8.93
2022-10-15T10:12:26.427Z,9.60
2022-10-15T10:14:55.177Z,8.57
2022-10-15T10:17:23.282Z,9.93
2022-10-15T10:20:09.283Z,8.05
2022-10-15T10:22:50.392Z,8.40
2022-10-15T10:25:28.921Z,9.07
2022-10-15T10:28:06.425Z,8.07
2022-10-15T10:30:34.566Z,8.23
2022-10-15T10:33:01.771Z,8.30
2022-10-15T10:35:30.539Z,8.90
2022-10-15T10:37:57.753Z,7.47
2022-10-15T10:40:35.317Z,8.48
2022-10-15T10:43:11.528Z,8.98
2022-10-15T10:45:38.871Z,7.75
2022-10-15T10:48:25.335Z,8.07
2022-10-15T10:54:14.722Z,7.72
2022-10-15T10:56:42.552Z,8.82
2022-10-15T10:59:14.763Z,8.05
2022-10-15T11:01:41.963Z,7.43
2022-10-15T11:04:18.760Z,7.53
2022-10-15T11:07:05.417Z,6.53
2022-10-15T11:09:55.256Z,7.55
2022-10-15T11:12:29.817Z,7.35
2022-10-15T11:15:17.314Z,7.63
2022-10-15T11:17:50.535Z,10.88
2022-10-15T11:20:59.821Z,8.85
2022-10-15T11:23:38.729Z,9.50
2022-10-15T11:26:24.673Z,8.75
2022-10-15T11:28:59.721Z,8.52
2022-10-15T11:31:27.547Z,7.20
2022-10-15T11:34:00.567Z,7.80
2022-10-15T11:36:44.084Z,8.85
2022-10-15T11:39:11.267Z,8.20
2022-10-15T11:41:50.687Z,10.50
2022-10-15T11:44:20.681Z,8.23
2022-10-15T11:46:47.907Z,11.88
2022-10-15T11:49:17.875Z,7.07
2022-10-15T11:52:07.153Z,7.65
2022-10-15T11:54:48.099Z,8.52
2022-10-15T11:57:19.430Z,7.80
2022-10-15T12:00:05.113Z,9.13
2022-10-15T12:02:41.113Z,8.23
2022-10-15T12:05:08.481Z,7.35
2022-10-15T12:07:39.711Z,6.10
2022-10-15T12:10:10.222Z,7.53
2022-10-15T12:12:52.375Z,6.97
2022-10-15T12:15:28.703Z,5.72
2022-10-15T12:18:03.870Z,7.32
2022-10-15T12:20:31.114Z,6.53
2022-10-15T12:22:59.462Z,5.97
2022-10-15T12:25:35.570Z,8.73
2022-10-15T12:28:02.762Z,7.18
2022-10-15T12:30:34.249Z,9.55
2022-10-15T12:33:01.854Z,8.82
2022-10-15T12:35:31.394Z,11.90
2022-10-15T12:37:58.902Z,11.75
2022-10-15T12:40:27.539Z,20.67
2022-10-15T12:43:05.473Z,6.93
2022-10-15T12:45:40.514Z,6.97
2022-10-15T12:48:14.046Z,7.05
2022-10-15T12:50:41.265Z,6.35
2022-10-15T12:53:14.617Z,11.07
2022-10-15T12:55:41.842Z,11.60
2022-10-15T12:58:27.874Z,8.20
2022-10-15T13:00:55.133Z,10.80
2022-10-15T13:03:24.105Z,10.43
2022-10-15T13:05:53.966Z,11.77
2022-10-15T13:08:31.866Z,9.32
2022-10-15T13:10:59.360Z,21.50
2022-10-15T13:13:30.452Z,10.60
2022-10-15T13:15:59.049Z,9.35
2022-10-15T13:18:26.298Z,10.52
2022-10-15T13:20:56.157Z,15.32
2022-10-15T13:23:31.217Z,15.88
2022-10-15T13:26:12.212Z,10.20
2022-10-15T13:28:41.898Z,9.73
2022-10-15T13:31:30.717Z,8.43
2022-10-15T13:34:01.794Z,9.35
2022-10-15T13:36:30.901Z,13.25
2022-10-15T13:38:59.245Z,18.65
2022-10-15T13:41:32.849Z,25.20
2022-10-15T13:44:01.132Z,19.30
2022-10-15T13:46:33.021Z,27.23
2022-10-15T13:49:01.068Z,11.15
2022-10-15T13:51:33.885Z,11.43
2022-10-15T13:54:01.363Z,10.07
2022-10-15T13:56:29.358Z,15.25
2022-10-15T13:58:56.583Z,19.90
2022-10-15T14:01:24.381Z,16.33
2022-10-15T14:03:54.885Z,20.30
2022-10-15T14:06:22.117Z,40.83
2022-10-15T14:08:50.104Z,17.98
2022-10-15T14:11:18.786Z,22.27
2022-10-15T14:13:46.315Z,13.25
2022-10-15T14:16:14.986Z,9.55
2022-10-15T14:18:52.079Z,11.90
2022-10-15T14:21:20.255Z,9.90
2022-10-15T14:23:47.602Z,7.20
2022-10-15T14:26:15.371Z,7.55
2022-10-15T14:28:42.703Z,8.80
2022-10-15T14:31:10.009Z,6.82
2022-10-15T14:33:40.536Z,12.27
2022-10-15T14:36:12.727Z,5.93
2022-10-15T14:38:40.143Z,64.03
2022-10-15T14:41:39.509Z,17.88
2022-10-15T14:44:12.883Z,13.68
2022-10-15T14:46:41.396Z,9.45
2022-10-15T14:49:37.795Z,14.95
2022-10-15T14:52:08.629Z,7.00
2022-10-15T14:54:39.342Z,8.60
2022-10-15T14:57:06.534Z,17.27
2022-10-15T14:59:34.517Z,13.50
2022-10-15T15:02:03.193Z,9.13
2022-10-15T15:04:41.057Z,6.78
2022-10-15T15:07:15.458Z,8.90
2022-10-15T15:09:42.690Z,8.98
2022-10-15T15:12:12.245Z,12.23
2022-10-15T15:14:39.430Z,11.55
2022-10-15T15:17:06.634Z,16.40
2022-10-15T15:19:33.829Z,8.52
2022-10-15T15:22:01.021Z,13.32
2022-10-15T15:24:28.279Z,13.70
2022-10-15T15:26:55.449Z,11.32
2022-10-15T15:29:22.667Z,6.97
2022-10-15T15:31:49.953Z,7.95
2022-10-15T15:34:17.150Z,25.15
2022-10-15T15:36:44.388Z,15.35
2022-10-15T15:39:11.613Z,10.10
2022-10-15T15:41:38.842Z,12.13
2022-10-15T15:44:07.457Z,14.48
2022-10-15T15:46:34.675Z,18.60
2022-10-15T15:49:02.191Z,13.18
2022-10-15T15:51:30.562Z,12.43
2022-10-15T15:53:57.847Z,10.05
2022-10-15T15:56:25.133Z,10.55
2022-10-15T15:58:52.383Z,13.50
2022-10-15T16:01:20.040Z,34.25
2022-10-15T16:03:47.448Z,10.20
2022-10-15T16:06:14.648Z,17.27
2022-10-15T16:08:41.904Z,17.60
2022-10-15T16:11:09.140Z,10.25
2022-10-15T16:13:36.350Z,9.27
2022-10-15T16:16:03.732Z,14.57
2022-10-15T16:18:30.950Z,14.27
2022-10-15T16:20:58.205Z,13.48
2022-10-15T16:23:25.448Z,14.10
2022-10-15T16:25:54.542Z,10.27
2022-10-15T16:28:21.787Z,9.80
2022-10-15T16:30:49.135Z,12.93
2022-10-15T16:33:16.395Z,10.30
2022-10-15T16:35:43.598Z,13.15
2022-10-15T16:38:10.828Z,10.98
2022-10-15T16:40:38.978Z,9.40
2022-10-15T16:43:06.173Z,11.75
2022-10-15T16:45:33.499Z,22.65
2022-10-15T16:48:00.717Z,20.25
2022-10-15T16:50:27.935Z,13.82
2022-10-15T16:52:55.176Z,11.32
2022-10-15T16:55:22.378Z,16.60
2022-10-15T16:57:49.565Z,17.98
2022-10-15T17:00:16.839Z,14.98
2022-10-15T17:02:44.031Z,18.55
2022-10-15T17:05:11.237Z,11.40
2022-10-15T17:07:38.466Z,12.55
2022-10-15T17:10:08.555Z,13.52
2022-10-15T17:12:38.136Z,9.52
2022-10-15T17:15:05.592Z,8.75
2022-10-15T17:17:32.949Z,9.85
2022-10-15T17:20:00.148Z,13.43
2022-10-15T17:22:27.661Z,11.02
2022-10-15T17:24:55.070Z,7.47
2022-10-15T17:27:22.275Z,10.48
2022-10-15T17:29:49.604Z,15.43
2022-10-15T17:32:16.804Z,25.98
2022-10-15T17:34:44.017Z,21.10
2022-10-15T17:37:11.484Z,13.38
2022-10-15T17:39:38.757Z,14.15
2022-10-15T17:42:05.955Z,12.85
2022-10-15T17:44:33.216Z,7.80
2022-10-15T17:47:00.418Z,9.52
2022-10-15T17:49:27.665Z,8.50
2022-10-15T17:51:55.161Z,9.52
2022-10-15T17:54:22.355Z,9.00
2022-10-15T17:56:49.635Z,9.98
2022-10-15T17:59:16.913Z,8.30
2022-10-15T18:02:00.553Z,9.60
2022-10-15T18:04:31.445Z,9.65
2022-10-15T18:06:58.648Z,11.63
2022-10-15T18:09:26.534Z,10.80
2022-10-15T18:11:53.853Z,11.85
2022-10-15T18:14:21.818Z,13.57
2022-10-15T18:16:49.154Z,12.25
2022-10-15T18:19:16.457Z,9.00
2022-10-15T18:21:48.497Z,11.93
2022-10-15T18:24:20.053Z,11.68
2022-10-15T18:26:47.475Z,14.75
2022-10-15T18:29:14.775Z,18.98
2022-10-15T18:31:42.022Z,16.17
2022-10-15T18:34:09.226Z,24.25
2022-10-15T18:36:37.833Z,15.15
2022-10-15T18:39:05.067Z,14.25
2022-10-15T18:41:33.825Z,16.90
2022-10-15T18:44:04.822Z,12.35
2022-10-15T18:46:32.266Z,20.10
2022-10-15T18:48:59.536Z,22.92
2022-10-15T18:51:27.282Z,20.23
2022-10-15T18:53:54.676Z,22.10
2022-10-15T18:56:21.954Z,21.63
2022-10-15T18:58:49.178Z,24.40
2022-10-15T19:01:25.421Z,24.08
2022-10-15T19:03:52.931Z,22.02
2022-10-15T19:06:23.904Z,12.98
2022-10-15T19:08:51.295Z,16.40
2022-10-15T19:11:19.419Z,14.75
2022-10-15T19:13:46.716Z,15.07
2022-10-15T19:16:14.220Z,15.57
2022-10-15T19:18:41.412Z,24.55
2022-10-15T19:21:08.650Z,29.55
2022-10-15T19:23:35.941Z,75.22
2022-10-15T19:26:03.200Z,50.70
2022-10-15T19:28:30.747Z,40.63
2022-10-15T19:30:58.569Z,30.98
2022-10-15T19:33:25.999Z,33.95
2022-10-15T19:35:53.275Z,36.38
2022-10-15T19:38:20.515Z,35.50
2022-10-15T19:40:49.546Z,33.60
2022-10-15T19:43:18.621Z,30.45
2022-10-15T19:45:46.102Z,33.38
2022-10-15T19:48:13.989Z,29.27
2022-10-15T19:50:41.706Z,25.83
2022-10-15T19:53:09.526Z,26.63
2022-10-15T19:55:36.746Z,13.98
2022-10-15T19:58:03.951Z,28.00
2022-10-15T20:00:31.182Z,25.55
2022-10-15T20:02:58.430Z,22.58
2022-10-15T20:05:25.627Z,15.48
2022-10-15T20:07:52.848Z,15.45
2022-10-15T20:10:24.863Z,16.02
2022-10-15T20:12:53.104Z,31.92
2022-10-15T20:15:20.367Z,26.92
2022-10-15T20:17:48.096Z,27.45
2022-10-15T20:20:15.514Z,29.77
2022-10-15T20:22:42.853Z,28.83
2022-10-15T20:25:11.847Z,28.20
2022-10-15T20:27:39.101Z,32.70
2022-10-15T20:30:06.576Z,31.15
2022-10-15T20:32:35.976Z,37.83
2022-10-15T20:35:03.918Z,34.30
2022-10-15T20:37:31.193Z,18.58
2022-10-15T20:39:59.987Z,43.13
2022-10-15T20:42:28.096Z,32.38
2022-10-15T20:44:55.573Z,31.35
2022-10-15T20:47:22.774Z,26.10
2022-10-15T20:49:50.272Z,28.90
2022-10-15T20:52:17.537Z,28.70
2022-10-15T20:54:44.898Z,30.92
2022-10-15T20:57:12.699Z,32.78
2022-10-15T20:59:39.912Z,32.97
2022-10-15T21:02:07.166Z,35.90
2022-10-15T21:04:34.394Z,35.42
2022-10-15T21:07:01.596Z,39.35
2022-10-15T21:09:28.835Z,42.92
2022-10-15T21:11:56.162Z,47.30
2022-10-15T21:14:23.407Z,50.95
2022-10-15T21:16:50.621Z,45.65
2022-10-15T21:19:17.978Z,40.20
2022-10-15T21:21:45.240Z,42.83
2022-10-15T21:24:13.294Z,44.58
2022-10-15T21:26:40.596Z,40.53
2022-10-15T21:29:13.248Z,44.33
2022-10-15T21:31:40.493Z,99.50
2022-10-15T21:34:07.690Z,92.57
2022-10-15T21:36:34.917Z,58.85
2022-10-15T21:39:03.013Z,45.55
2022-10-15T21:41:31.374Z,46.22
2022-10-15T21:43:58.962Z,46.97
2022-10-15T21:46:26.317Z,38.72
2022-10-15T21:48:53.798Z,48.70
2022-10-15T21:51:23.763Z,35.38
2022-10-15T21:53:51.058Z,30.95
2022-10-15T21:56:18.277Z,32.10
2022-10-15T21:58:45.592Z,36.03
2022-10-15T22:01:15.861Z,79.95
2022-10-15T22:03:44.688Z,63.95
2022-10-15T22:06:12.085Z,62.40
2022-10-15T22:08:39.366Z,66.65
2022-10-15T22:11:16.388Z,49.03
2022-10-15T22:13:44.200Z,42.10
2022-10-15T22:16:11.506Z,35.00
2022-10-15T22:18:38.796Z,24.42
2022-10-15T22:21:11.033Z,24.27
2022-10-15T22:23:38.222Z,23.08
2022-10-15T22:26:05.447Z,22.27
2022-10-15T22:28:32.700Z,24.48
2022-10-15T22:31:06.581Z,27.15
2022-10-15T22:33:34.102Z,28.77
2022-10-15T22:36:02.149Z,30.02
2022-10-15T22:38:29.474Z,24.20
2022-10-15T22:40:56.863Z,23.08
2022-10-15T22:43:24.214Z,23.42
2022-10-15T22:45:51.493Z,22.50
2022-10-15T22:48:18.730Z,27.50
2022-10-15T22:50:45.929Z,23.02
2022-10-15T22:53:13.131Z,27.30
2022-10-15T22:55:40.395Z,33.92
2022-10-15T22:58:07.590Z,31.98
2022-10-15T23:00:34.802Z,31.13
2022-10-15T23:03:02.031Z,37.47
2022-10-15T23:05:29.234Z,29.50
2022-10-15T23:07:56.446Z,20.48
2022-10-15T23:10:23.681Z,29.85
2022-10-15T23:12:50.903Z,28.50
2022-10-15T23:15:18.155Z,32.10
2022-10-15T23:17:45.388Z,34.35
2022-10-15T23:20:12.665Z,31.20
2022-10-15T23:22:39.901Z,28.08
2022-10-15T23:25:07.397Z,32.03
2022-10-15T23:27:34.586Z,26.48
2022-10-15T23:30:14.303Z,26.67
2022-10-15T23:32:48.992Z,26.52
2022-10-15T23:35:16.468Z,26.83
2022-10-15T23:37:43.663Z,24.05
2022-10-15T23:40:11.205Z,24.75
2022-10-15T23:42:38.402Z,26.05
2022-10-15T23:45:05.787Z,28.35
2022-10-15T23:47:33.010Z,26.55
2022-10-15T23:50:00.202Z,26.23
2022-10-15T23:52:27.412Z,28.25
2022-10-15T23:54:54.658Z,28.85
2022-10-15T23:57:21.856Z,24.55
2022-10-15T23:59:49.055Z,25.23
